Walsenburg, Colorado
Current Conditions -  °F | °C
As of 4:31 PM on Friday 19 Dec 2014 (Local Time) from KVTP Reporting Station
Clear Clear  
Wind Chill:   Ceiling: Unl
Heat Index: 19°   Visibility: 10mi
Dew Point: 10°   Wind: 16mph
Humidity: 68%   Direction: 190°S
Pressure: 30.07"   Gusts: 28mph
Location:  37.62°N, 104.78°W
Report Text: KVTP 192331Z AUTO 19014G24KT 10SM CLR M07/M12 A3007 RMK AO2
Loading
Personal Weather Stations






























Interactive Weather Map New forecast layout! Learn more

10-Day Weather Forecast

Advertisements
Track Severe Weather on mobile